Attica, Ohio
Current Conditions -  °F | °C
As of 11:52 AM on Saturday 25 Oct 2014 (Local Time) from KMFD Reporting Station
Scattered Clouds Scattered Clouds  
Wind Chill: 61°   Ceiling: Unl
Heat Index: 61°   Visibility: 10mi
Dew Point: 51°   Wind: 15mph
Humidity: 70%   Direction: 210°SSW
Pressure: 29.87"   Gusts: NA
Location:  41.06°N, 82.89°W
Report Text: KMFD 251552Z 21013KT 10SM SCT033 SCT041 16/11 A2987 RMK AO2 SLP116 T01610106
Loading
Personal Weather Stations






























Interactive Weather Map
Tropical Storm Tracking
New forecast layout! Learn more

10-Day Weather Forecast

Advertisements
Track Severe Weather on mobile